Laie, HI (96762)

12:22 PM HST on October 22, 2014 (GMT -1000)
Mililani Mauka | Change Station
CLOSE
Current Station
Personal Weather Station
Location: Mililani, HI
Elevation: 843 ft
Nearby Weather Stations

Elev 843 ft 21.48 °N, 158.00 °W | Updated 10 minutes ago

Mostly Cloudy
Mostly Cloudy
84.0 °F
Feels Like 92 °F
N
2.7
Wind Variable Wind from NW

Today
High -- | Low -- °F
--% Chance of Precip.
Yesterday
High -- | Low -- °F
Precip. -- in
6:30 AM 6:01 PM
Waning Crescent, 1% visible
Pressure 30.00 in
Visibility 10.0 miles
Clouds Scattered Clouds 2500 ft
Mostly Cloudy 3500 ft
Mostly Cloudy 15000 ft
Heat Index 92 °F
Dew Point 75 °F
Humidity 75%
Rainfall 0.02 in
Snow Depth Not available.
UV 5 out of 12
Pollen Not available.
PM2.5 Good
Flu Activity Sporadic
METAR PHHI 222158Z 23002KT 10SM SCT025 BKN035 BKN150 26/22 A3003 RMK AO2A RAB2115E2124DZB2107E2137 SLP159 P0000 T02630220 $

More Conditions Fewer Conditions

Pressure 30.00 in
Visibility 10.0 miles
Clouds Scattered Clouds 2500 ft
Mostly Cloudy 3500 ft
Mostly Cloudy 15000 ft
Heat Index 92 °F
Dew Point 75 °F
Humidity 75%
Rainfall 0.02 in
Snow Depth Not available.
UV 5 out of 12
Pollen Not available.
PM2.5 Good
Flu Activity Sporadic
METAR PHHI 222158Z 23002KT 10SM SCT025 BKN035 BKN150 26/22 A3003 RMK AO2A RAB2115E2124DZB2107E2137 SLP159 P0000 T02630220 $

More Conditions Fewer Conditions

10-Day Weather Forecast

Almanac

Astronomy

Oct. 22, 2014 Rise Set
Actual Time 6:30 AM HST 6:01 PM HST
Civil Twilight 6:07 AM HST 6:24 PM HST
Nautical Twilight 5:41 AM HST 6:50 PM HST
Astronomical Twilight 5:15 AM HST 7:16 PM HST
Moon 5:30 AM HST 5:29 PM HST
Length of Visible Light 12h 16m
Length of Day
11h 30m
Tomorrow will be 1m 9s shorter.
Waning Crescent, 1% of the Moon is Illuminated
Today
Waning Crescent
Oct 23
New
Oct 30
First Quarter
Nov 6
Full
Nov 14
Last Quarter

Today's Extremes

State Highs State Lows

Community

WunderPhotos

Upload Photos

1,764,064 photos uploaded!

WunderBlogs® & News

Nearby

Air Quality

  Air Quality AQ Index Pollutant
Current Good
PM2.5
Wednesday Good
OZONE
Thursday Good
OZONE

Snow Depth

Station Depth Elevation
No new snow has been reported.

Earthquake Activity

City Distance Mag. Time & Date
No recent earthquake activity has been reported nearby.
Minimum magnitude displayed is 2.5.

Coastal Water Temperatures

Place Temperature
No Stations Reporting

Nearby Weather Stations